Time;durP1;ratioP1;P1;durP2;ratioP2;P2;SDS_P1;SDS_P2;PMS_P1;PMS_P2;Temp;Humidity;BMP_temperature;BMP_pressure;BME280_temperature;BME280_humidity;BME280_pressure;Samples;Min_cycle;Max_cycle;Signal;HPM_P1;HPM_P2
2023/04/18 00:02:38;;;;;;;;;;;;;;;9.07;83.62;101308.92;102585;277;105893;-58
2023/04/18 00:05:12;;;;;;;;;;;;;;;9.11;83.32;101305.80;102504;278;114547;-59
2023/04/18 00:07:46;;;;;;;;;;;;;;;9.03;83.75;101307.42;102582;277;95720;-56
2023/04/18 00:10:21;;;;;;;;;;;;;;;9.00;83.77;101308.08;102611;277;97093;-56
2023/04/18 00:12:54;;;;;;;;;;;;;;;9.01;83.73;101304.69;102590;277;121411;-56
2023/04/18 00:15:28;;;;;;;;;;;;;;;9.08;83.60;101302.41;102572;277;105903;-58
2023/04/18 00:18:02;;;;;;;;;;;;;;;9.09;83.67;101301.01;102557;277;114048;-59
2023/04/18 00:20:38;;;;;;;;;;;;;;;9.08;83.91;101303.65;102581;277;96979;-58
2023/04/18 00:23:12;;;;;;;;;;;;;;;9.10;83.92;101304.12;102590;278;98230;-58
2023/04/18 00:25:48;;;;;;;;;;;;;;;9.07;83.87;101302.91;102599;278;120878;-59
2023/04/18 00:28:20;;;;;;;;;;;;;;;9.03;84.20;101303.23;102543;270;105640;-59
2023/04/18 00:30:57;;;;;;;;;;;;;;;9.00;84.21;101301.55;102579;277;113481;-56
2023/04/18 00:33:31;;;;;;;;;;;;;;;9.05;84.02;101306.34;102514;277;96666;-55
2023/04/18 00:36:08;;;;;;;;;;;;;;;9.01;84.05;101303.30;102651;276;98391;-56
2023/04/18 00:38:45;;;;;;;;;;;;;;;9.03;84.09;101308.17;102548;278;118710;-56
2023/04/18 00:41:27;;;;;;;;;;;;;;;8.95;84.15;101303.18;102552;266;104456;-57
2023/04/18 00:44:10;;;;;;;;;;;;;;;8.88;84.56;101304.42;102500;277;114754;-57
2023/04/18 00:46:45;;;;;;;;;;;;;;;8.88;84.32;101307.32;102550;277;94988;-57
2023/04/18 00:49:24;;;;;;;;;;;;;;;8.89;84.20;101306.48;102551;278;97313;-56
2023/04/18 00:51:58;;;;;;;;;;;;;;;8.91;84.13;101306.87;102586;277;121599;-56
2023/04/18 00:54:38;;;;;;;;;;;;;;;8.85;84.36;101304.70;102549;277;103207;-56
2023/04/18 00:57:20;;;;;;;;;;;;;;;8.83;84.46;101306.33;102549;277;115294;-55
2023/04/18 01:00:07;;;;;;;;;;;;;;;8.81;84.53;101306.62;102551;277;97107;-56
2023/04/18 01:02:43;;;;;;;;;;;;;;;8.88;84.54;101305.13;102597;277;97814;-57
2023/04/18 01:05:24;;;;;;;;;;;;;;;8.94;84.48;101303.69;102547;277;121363;-57
2023/04/18 01:08:02;;;;;;;;;;;;;;;8.92;84.77;101302.36;102543;277;105175;-55
2023/04/18 01:10:37;;;;;;;;;;;;;;;8.88;84.95;101300.88;102574;278;114137;-58
2023/04/18 01:13:15;;;;;;;;;;;;;;;8.84;85.05;101302.48;102567;277;96969;-57
2023/04/18 01:15:49;;;;;;;;;;;;;;;8.86;85.01;101300.98;102575;277;96842;-56
2023/04/18 01:18:30;;;;;;;;;;;;;;;8.88;84.94;101300.95;102540;278;120703;-57
2023/04/18 01:21:07;;;;;;;;;;;;;;;8.92;84.95;101304.39;102608;277;104962;-58
2023/04/18 01:23:43;;;;;;;;;;;;;;;8.87;84.93;101304.53;102524;278;114033;-58
2023/04/18 01:26:18;;;;;;;;;;;;;;;8.82;85.10;101302.28;102553;277;95515;-57
2023/04/18 01:28:54;;;;;;;;;;;;;;;8.79;85.30;101300.52;102055;278;681944;-58
2023/04/18 01:31:36;;;;;;;;;;;;;;;8.72;85.01;101303.00;102534;278;120876;-56
2023/04/18 01:34:16;;;;;;;;;;;;;;;8.68;85.37;101302.20;102593;277;106086;-56
2023/04/18 01:36:54;;;;;;;;;;;;;;;8.66;85.15;101298.45;102600;278;113899;-56
2023/04/18 01:39:32;;;;;;;;;;;;;;;8.63;85.30;101298.92;102575;278;95585;-56
2023/04/18 01:42:08;;;;;;;;;;;;;;;8.65;85.37;101298.85;102627;278;97520;-58
2023/04/18 01:44:43;;;;;;;;;;;;;;;8.69;85.30;101290.22;102639;278;120829;-58
2023/04/18 01:47:15;;;;;;;;;;;;;;;8.73;85.43;101291.27;102697;278;104941;-56
2023/04/18 01:49:54;;;;;;;;;;;;;;;8.76;85.39;101294.52;102597;278;113834;-56
2023/04/18 01:52:34;;;;;;;;;;;;;;;8.82;85.36;101297.80;102648;278;97138;-57
2023/04/18 01:55:07;;;;;;;;;;;;;;;8.87;85.48;101298.08;102608;278;98284;-56
2023/04/18 01:57:45;;;;;;;;;;;;;;;8.84;85.52;101301.77;102641;278;120232;-57
2023/04/18 02:00:21;;;;;;;;;;;;;;;8.80;85.85;101294.95;102588;278;104350;-55
2023/04/18 02:03:01;;;;;;;;;;;;;;;8.85;85.62;101297.42;102609;278;115112;-55
2023/04/18 02:05:44;;;;;;;;;;;;;;;8.85;85.45;101299.01;102651;278;94822;-57
2023/04/18 02:08:22;;;;;;;;;;;;;;;8.85;85.41;101294.65;102648;278;96985;-56
2023/04/18 02:10:55;;;;;;;;;;;;;;;8.78;85.55;101294.98;102648;278;120054;-58
2023/04/18 02:13:34;;;;;;;;;;;;;;;8.76;85.54;101292.77;102654;278;105541;-58
2023/04/18 02:16:11;;;;;;;;;;;;;;;8.74;85.43;101291.10;102648;278;114234;-56
2023/04/18 02:18:46;;;;;;;;;;;;;;;8.70;85.43;101289.05;102610;278;96816;-56
2023/04/18 02:21:23;;;;;;;;;;;;;;;8.66;85.69;101286.58;102643;278;97883;-53
2023/04/18 02:24:00;;;;;;;;;;;;;;;8.69;85.77;101283.22;102610;278;121053;-56
2023/04/18 02:26:39;;;;;;;;;;;;;;;8.69;85.65;101281.20;102582;278;105212;-56
2023/04/18 02:29:17;;;;;;;;;;;;;;;8.73;85.84;101277.96;102566;278;114326;-55
2023/04/18 02:31:55;;;;;;;;;;;;;;;8.79;85.73;101282.17;102638;278;97350;-56
2023/04/18 02:34:37;;;;;;;;;;;;;;;8.79;85.90;101280.70;102609;278;98567;-55
2023/04/18 02:37:15;;;;;;;;;;;;;;;8.81;86.03;101286.63;102599;278;120616;-55
2023/04/18 02:39:49;;;;;;;;;;;;;;;8.78;86.29;101285.87;102582;278;106167;-56
2023/04/18 02:42:31;;;;;;;;;;;;;;;8.79;86.35;101285.45;102562;278;113456;-56
2023/04/18 02:45:04;;;;;;;;;;;;;;;8.79;86.46;101288.48;102600;278;96133;-55
2023/04/18 02:47:38;;;;;;;;;;;;;;;8.81;86.46;101287.86;102653;277;97361;-59
2023/04/18 02:50:12;;;;;;;;;;;;;;;8.82;86.41;101286.52;102583;277;119857;-60
2023/04/18 02:52:49;;;;;;;;;;;;;;;8.78;86.93;101290.22;102646;277;106114;-58
2023/04/18 02:55:26;;;;;;;;;;;;;;;8.80;86.52;101289.46;102593;278;114721;-59
2023/04/18 02:58:04;;;;;;;;;;;;;;;8.83;86.60;101288.02;102592;278;96711;-56
2023/04/18 03:00:38;;;;;;;;;;;;;;;8.90;86.44;101287.90;102651;278;98209;-58
2023/04/18 03:03:13;;;;;;;;;;;;;;;8.95;86.41;101289.17;102610;277;120375;-58
2023/04/18 03:05:48;;;;;;;;;;;;;;;8.85;86.52;101290.91;102593;278;105694;-56
2023/04/18 03:08:21;;;;;;;;;;;;;;;8.86;86.72;101293.69;102521;277;113324;-58
2023/04/18 03:11:02;;;;;;;;;;;;;;;8.82;86.52;101292.48;102549;278;94058;-59
2023/04/18 03:13:37;;;;;;;;;;;;;;;8.76;87.03;101293.64;102538;278;96944;-58
2023/04/18 03:16:17;;;;;;;;;;;;;;;8.65;87.00;101293.83;102580;278;120874;-58
2023/04/18 03:18:50;;;;;;;;;;;;;;;8.64;86.76;101298.45;102583;278;103517;-58
2023/04/18 03:21:27;;;;;;;;;;;;;;;8.64;87.05;101296.46;102507;278;114058;-56
2023/04/18 03:24:03;;;;;;;;;;;;;;;8.62;86.60;101297.73;102522;278;96515;-55
2023/04/18 03:26:46;;;;;;;;;;;;;;;8.60;87.23;101295.28;102537;266;97760;-59
2023/04/18 03:29:21;;;;;;;;;;;;;;;8.57;87.01;101298.05;102546;277;120756;-58
2023/04/18 03:31:57;;;;;;;;;;;;;;;8.61;87.11;101296.44;102492;278;105815;-58
2023/04/18 03:34:35;;;;;;;;;;;;;;;8.64;87.02;101297.38;102519;277;114771;-58
2023/04/18 03:37:10;;;;;;;;;;;;;;;8.68;87.07;101298.25;102562;278;96791;-55
2023/04/18 03:39:49;;;;;;;;;;;;;;;8.71;87.10;101300.95;102556;278;96503;-54
2023/04/18 03:42:30;;;;;;;;;;;;;;;8.75;87.05;101297.71;102547;277;120492;-66
2023/04/18 03:45:04;;;;;;;;;;;;;;;8.76;87.10;101298.45;102556;277;104898;-56
2023/04/18 03:47:39;;;;;;;;;;;;;;;8.79;87.09;101304.08;102555;277;114819;-56
2023/04/18 03:50:12;;;;;;;;;;;;;;;8.84;86.89;101298.39;102528;277;96860;-55
2023/04/18 03:52:48;;;;;;;;;;;;;;;8.89;86.63;101303.25;102537;277;95960;-59
2023/04/18 03:55:25;;;;;;;;;;;;;;;8.92;86.81;101304.45;102530;277;120787;-58
2023/04/18 03:57:58;;;;;;;;;;;;;;;8.90;86.90;101309.39;102577;277;104417;-58
2023/04/18 04:10:21;;;;;;;;;;;;;;;8.85;86.76;101309.61;102678;277;119261;-56
2023/04/18 04:12:56;;;;;;;;;;;;;;;8.85;86.70;101303.58;102594;277;104901;-57
2023/04/18 04:15:29;;;;;;;;;;;;;;;8.83;86.71;101306.70;102579;278;114690;-58
2023/04/18 04:18:07;;;;;;;;;;;;;;;8.76;86.83;101308.21;102580;278;95334;-56
2023/04/18 04:20:44;;;;;;;;;;;;;;;8.75;86.69;101311.48;102677;277;97314;-56
2023/04/18 04:23:17;;;;;;;;;;;;;;;8.72;86.83;101311.08;102487;278;120914;-56
2023/04/18 04:25:52;;;;;;;;;;;;;;;8.74;86.78;101312.63;102578;278;105649;-59
2023/04/18 04:31:43;;;;;;;;;;;;;;;8.89;86.83;101316.02;102640;277;96991;-58
2023/04/18 04:34:22;;;;;;;;;;;;;;;8.90;86.90;101315.34;102597;277;95823;-55
2023/04/18 04:36:59;;;;;;;;;;;;;;;8.96;86.65;101320.15;102517;278;120349;-54
2023/04/18 04:42:45;;;;;;;;;;;;;;;9.05;86.68;101320.84;102647;277;112283;-58
2023/04/18 04:45:19;;;;;;;;;;;;;;;9.12;86.48;101323.33;102584;278;94387;-58
2023/04/18 04:47:56;;;;;;;;;;;;;;;9.17;86.44;101322.50;102362;279;96188;-59
2023/04/18 04:50:34;;;;;;;;;;;;;;;9.16;86.20;101323.80;102404;280;119233;-59
2023/04/18 04:53:10;;;;;;;;;;;;;;;9.17;86.03;101329.16;102369;280;106244;-59
2023/04/18 04:55:44;;;;;;;;;;;;;;;9.18;86.02;101331.73;102360;280;114280;-56
2023/04/18 04:58:18;;;;;;;;;;;;;;;9.13;86.00;101327.32;102368;280;97034;-57
2023/04/18 05:01:06;;;;;;;;;;;;;;;9.10;86.08;101324.59;102346;277;96506;-59
2023/04/18 05:06:59;;;;;;;;;;;;;;;9.17;85.93;101330.85;103453;277;105202;-58
2023/04/18 05:09:31;;;;;;;;;;;;;;;9.23;85.95;101336.62;104083;277;113274;-56
2023/04/18 05:12:04;;;;;;;;;;;;;;;9.22;85.93;101339.17;104086;274;96181;-67
2023/04/18 05:14:36;;;;;;;;;;;;;;;9.29;85.83;101341.55;104099;278;98046;-56
2023/04/18 05:17:08;;;;;;;;;;;;;;;9.31;85.76;101341.84;104102;278;121269;-58
2023/04/18 05:19:42;;;;;;;;;;;;;;;9.37;85.68;101343.19;104108;277;105480;-56
2023/04/18 05:22:15;;;;;;;;;;;;;;;9.48;85.48;101336.28;104052;270;115126;-58
2023/04/18 05:24:47;;;;;;;;;;;;;;;9.57;85.45;101336.09;104529;278;97061;-55
2023/04/18 05:27:19;;;;;;;;;;;;;;;9.62;85.35;101336.62;104091;278;98140;-55
2023/04/18 05:29:51;;;;;;;;;;;;;;;9.70;85.28;101340.42;104549;277;120651;-55
2023/04/18 05:32:23;;;;;;;;;;;;;;;9.79;84.94;101339.42;104579;278;103419;-55
2023/04/18 05:34:56;;;;;;;;;;;;;;;9.81;84.84;101340.81;104543;278;114473;-58
2023/04/18 05:37:28;;;;;;;;;;;;;;;9.80;84.96;101340.77;104053;279;93667;-58
2023/04/18 05:40:00;;;;;;;;;;;;;;;10.02;84.76;101339.30;104115;278;97426;-55
2023/04/18 05:42:32;;;;;;;;;;;;;;;10.20;84.66;101340.18;104096;278;120171;-55
2023/04/18 05:45:05;;;;;;;;;;;;;;;10.45;84.51;101340.84;104127;277;105747;-58
2023/04/18 05:47:37;;;;;;;;;;;;;;;10.58;84.09;101341.33;104175;278;114374;-58
2023/04/18 05:50:10;;;;;;;;;;;;;;;10.74;83.80;101341.08;104143;278;94252;-55
2023/04/18 05:52:43;;;;;;;;;;;;;;;10.73;83.60;101338.98;104178;278;97201;-55
2023/04/18 05:55:34;;;;;;;;;;;;;;;10.86;83.57;101336.15;104169;278;119950;-58
2023/04/18 05:58:06;;;;;;;;;;;;;;;11.05;83.15;101334.34;104016;278;106320;-56
2023/04/18 06:00:38;;;;;;;;;;;;;;;11.15;82.83;101329.84;104446;278;113187;-55
2023/04/18 06:03:10;;;;;;;;;;;;;;;11.26;82.57;101331.11;104036;279;96075;-56
2023/04/18 06:05:43;;;;;;;;;;;;;;;11.40;82.34;101329.02;104035;278;97935;-56
2023/04/18 06:08:15;;;;;;;;;;;;;;;11.60;82.14;101331.01;103999;279;120855;-56
2023/04/18 06:10:47;;;;;;;;;;;;;;;11.89;81.53;101332.95;104081;278;105539;-56
2023/04/18 06:13:19;;;;;;;;;;;;;;;12.10;81.46;101335.95;104061;278;113207;-58
2023/04/18 06:15:51;;;;;;;;;;;;;;;12.05;80.92;101334.50;104057;278;94238;-58
2023/04/18 06:18:24;;;;;;;;;;;;;;;11.87;80.49;101336.57;104096;279;96411;-58
2023/04/18 06:20:56;;;;;;;;;;;;;;;11.85;80.17;101337.27;104475;278;121658;-58
2023/04/18 06:23:28;;;;;;;;;;;;;;;11.73;79.92;101341.69;104047;278;106322;-56
2023/04/18 06:26:00;;;;;;;;;;;;;;;11.64;80.06;101337.19;104458;278;114686;-55
2023/04/18 06:28:33;;;;;;;;;;;;;;;11.64;79.59;101338.46;104069;278;93813;-58
2023/04/18 06:31:05;;;;;;;;;;;;;;;11.64;79.69;101336.38;104079;279;97905;-58
2023/04/18 06:33:37;;;;;;;;;;;;;;;11.73;79.45;101339.67;104073;278;118568;-56
2023/04/18 06:39:37;;;;;;;;;;;;;;;11.68;79.36;101338.02;104114;276;112660;-58
2023/04/18 06:42:09;;;;;;;;;;;;;;;11.75;79.17;101341.21;104749;277;93975;-58
2023/04/18 06:44:42;;;;;;;;;;;;;;;11.72;79.06;101344.64;104325;276;97609;-58
2023/04/18 06:47:17;;;;;;;;;;;;;;;11.65;79.11;101344.19;104305;277;120035;-55
2023/04/18 06:49:50;;;;;;;;;;;;;;;11.48;78.90;101347.79;104732;277;106312;-56
2023/04/18 06:52:22;;;;;;;;;;;;;;;11.39;79.00;101346.45;104288;273;114303;-56
2023/04/18 06:54:54;;;;;;;;;;;;;;;11.42;78.95;101345.93;104285;276;97405;-58
2023/04/18 06:57:26;;;;;;;;;;;;;;;11.52;78.96;101339.77;104284;277;97692;-58
2023/04/18 06:59:58;;;;;;;;;;;;;;;11.62;78.95;101344.20;104733;277;121855;-58
2023/04/18 07:02:31;;;;;;;;;;;;;;;11.60;79.06;101341.54;104730;277;105660;-59
2023/04/18 07:05:03;;;;;;;;;;;;;;;11.63;78.94;101345.71;104716;277;114686;-57
2023/04/18 07:07:35;;;;;;;;;;;;;;;11.62;79.00;101347.41;104288;276;93432;-56
2023/04/18 07:10:10;;;;;;;;;;;;;;;11.61;79.00;101346.13;104749;277;98121;-59
2023/04/18 07:12:43;;;;;;;;;;;;;;;11.68;78.70;101349.16;104301;277;119935;-61
2023/04/18 07:15:15;;;;;;;;;;;;;;;11.72;78.71;101352.80;104306;277;105984;-59
2023/04/18 07:17:47;;;;;;;;;;;;;;;11.80;78.54;101349.70;104308;277;114204;-59
2023/04/18 07:20:20;;;;;;;;;;;;;;;11.92;78.50;101351.83;104294;277;94940;-59
2023/04/18 07:22:52;;;;;;;;;;;;;;;12.07;78.47;101352.07;104309;277;96634;-60
2023/04/18 07:25:25;;;;;;;;;;;;;;;12.24;78.11;101350.56;104063;277;119790;-57
2023/04/18 07:27:57;;;;;;;;;;;;;;;12.39;77.98;101351.98;104298;277;105284;-56
2023/04/18 07:30:30;;;;;;;;;;;;;;;12.34;77.69;101349.19;104312;277;114959;-58
2023/04/18 07:33:02;;;;;;;;;;;;;;;12.37;77.25;101349.75;104082;276;96510;-60
2023/04/18 07:45:09;;;;;;;;;;;;;;;12.75;76.64;101350.08;104233;277;111789;-56
2023/04/18 07:47:41;;;;;;;;;;;;;;;13.01;76.45;101346.68;104044;279;93847;-56
2023/04/18 07:50:14;;;;;;;;;;;;;;;13.25;76.48;101347.25;104313;277;96280;-56
2023/04/18 07:52:47;;;;;;;;;;;;;;;13.44;76.27;101346.84;104302;276;121567;-56
2023/04/18 07:58:28;;;;;;;;;;;;;;;14.02;74.52;101352.49;104218;277;113502;-56
2023/04/18 08:01:01;;;;;;;;;;;;;;;14.32;74.62;101354.70;104307;276;94035;-55
2023/04/18 08:03:35;;;;;;;;;;;;;;;14.69;74.00;101358.55;104291;276;97032;-56
2023/04/18 08:06:08;;;;;;;;;;;;;;;15.04;73.70;101360.29;104764;276;120487;-59
2023/04/18 08:08:41;;;;;;;;;;;;;;;15.52;73.16;101354.86;104321;276;106501;-59
2023/04/18 08:11:14;;;;;;;;;;;;;;;15.81;70.53;101350.95;104778;276;113864;-59
2023/04/18 08:17:13;;;;;;;;;;;;;;;16.47;71.09;101347.17;104285;276;96724;-57
2023/04/18 08:19:45;;;;;;;;;;;;;;;16.91;71.03;101348.23;104739;277;119882;-57
2023/04/18 08:22:17;;;;;;;;;;;;;;;16.99;69.92;101347.08;104278;277;104190;-57
2023/04/18 08:25:02;;;;;;;;;;;;;;;17.10;67.90;101345.11;104686;277;115304;-57
2023/04/18 08:27:35;;;;;;;;;;;;;;;16.90;68.09;101346.86;104120;277;93737;-57
2023/04/18 08:30:09;;;;;;;;;;;;;;;16.96;68.29;101349.59;104141;277;96422;-56
2023/04/18 08:32:41;;;;;;;;;;;;;;;17.10;68.05;101342.59;104575;282;120801;-56
2023/04/18 08:35:14;;;;;;;;;;;;;;;17.64;67.39;101345.03;104594;277;104737;-59
2023/04/18 08:37:46;;;;;;;;;;;;;;;18.39;67.21;101346.38;104073;277;113393;-59
2023/04/18 08:40:18;;;;;;;;;;;;;;;19.33;66.18;101346.45;104121;278;93232;-54
2023/04/18 08:42:52;;;;;;;;;;;;;;;19.95;65.64;101338.98;104108;277;97706;-57
2023/04/18 08:45:25;;;;;;;;;;;;;;;20.55;65.13;101330.66;104611;277;120634;-59
2023/04/18 08:48:00;;;;;;;;;;;;;;;21.38;64.29;101332.30;104132;277;105837;-59
2023/04/18 08:54:09;;;;;;;;;;;;;;;22.33;59.99;101324.52;104116;276;93973;-55
2023/04/18 08:56:41;;;;;;;;;;;;;;;22.64;58.53;101328.14;104306;277;97346;-58
2023/04/18 08:59:13;;;;;;;;;;;;;;;23.03;58.58;101323.53;104568;277;121025;-55
2023/04/18 09:05:12;;;;;;;;;;;;;;;23.77;55.72;101315.77;104263;276;113539;-55
2023/04/18 09:07:45;;;;;;;;;;;;;;;23.64;54.18;101316.13;104305;277;93552;-58
2023/04/18 09:10:27;;;;;;;;;;;;;;;23.21;54.26;101315.52;104319;276;96065;-58
2023/04/18 09:13:01;;;;;;;;;;;;;;;23.20;52.83;101314.62;104774;277;120789;-55
2023/04/18 09:15:34;;;;;;;;;;;;;;;22.51;50.49;101312.05;104699;277;106700;-55
2023/04/18 09:18:09;;;;;;;;;;;;;;;21.60;52.28;101309.95;104238;277;114369;-58
2023/04/18 09:24:16;;;;;;;;;;;;;;;20.86;53.22;101315.92;104300;276;96797;-56
2023/04/18 09:26:50;;;;;;;;;;;;;;;20.50;52.72;101310.85;104800;276;120300;-56
2023/04/18 09:29:22;;;;;;;;;;;;;;;20.35;52.47;101307.84;103732;277;469896;-55
2023/04/18 09:32:02;;;;;;;;;;;;;;;20.50;53.53;101309.19;104274;277;114971;-58
2023/04/18 09:37:53;;;;;;;;;;;;;;;20.43;53.16;101303.89;104225;276;96915;-57
2023/04/18 09:40:25;;;;;;;;;;;;;;;20.32;53.17;101306.52;104293;277;120764;-57
2023/04/18 09:42:57;;;;;;;;;;;;;;;20.02;53.55;101305.64;104744;277;106064;-59
2023/04/18 09:45:29;;;;;;;;;;;;;;;19.69;53.22;101309.39;104297;277;115079;-55
2023/04/18 09:48:01;;;;;;;;;;;;;;;19.43;53.72;101311.30;104730;277;94559;-56
2023/04/18 09:50:34;;;;;;;;;;;;;;;19.38;54.29;101311.71;104314;277;95702;-57
2023/04/18 09:53:08;;;;;;;;;;;;;;;19.00;53.59;101315.21;104284;277;120369;-57
2023/04/18 09:55:41;;;;;;;;;;;;;;;18.68;53.46;101313.83;104741;277;104536;-57
2023/04/18 09:58:14;;;;;;;;;;;;;;;18.44;52.97;101310.13;104276;277;112814;-57
2023/04/18 10:00:46;;;;;;;;;;;;;;;17.99;53.60;101306.91;104315;277;94504;-57
2023/04/18 10:03:19;;;;;;;;;;;;;;;18.07;54.62;101310.23;104291;276;97147;-57
2023/04/18 10:05:51;;;;;;;;;;;;;;;18.11;55.09;101311.14;104284;277;121140;-57
2023/04/18 10:08:25;;;;;;;;;;;;;;;18.24;55.12;101309.23;104294;277;106128;-57
2023/04/18 10:10:57;;;;;;;;;;;;;;;18.32;55.53;101307.39;104269;277;113762;-57
2023/04/18 10:13:29;;;;;;;;;;;;;;;18.34;55.36;101307.96;104735;277;94221;-57
2023/04/18 10:16:02;;;;;;;;;;;;;;;18.29;55.22;101301.64;104751;277;97674;-57
2023/04/18 10:18:36;;;;;;;;;;;;;;;18.05;54.88;101299.09;104287;277;120401;-58
2023/04/18 10:21:09;;;;;;;;;;;;;;;17.94;55.02;101299.05;104307;277;105974;-57
2023/04/18 10:23:42;;;;;;;;;;;;;;;17.96;55.09;101297.27;104282;276;113885;-57
2023/04/18 10:26:15;;;;;;;;;;;;;;;17.93;54.90;101300.02;104269;277;94363;-57
2023/04/18 10:28:57;;;;;;;;;;;;;;;17.68;54.62;101293.36;104342;277;97669;-56
2023/04/18 10:31:38;;;;;;;;;;;;;;;17.76;55.21;101293.89;104317;277;121131;-55
2023/04/18 10:34:16;;;;;;;;;;;;;;;18.01;55.28;101290.95;104309;277;105879;-57
2023/04/18 10:37:05;;;;;;;;;;;;;;;18.49;55.60;101289.36;104657;277;116410;-57
2023/04/18 10:39:56;;;;;;;;;;;;;;;18.83;55.59;101286.86;104520;278;94921;-58
2023/04/18 10:43:00;;;;;;;;;;;;;;;18.75;55.23;101289.95;104143;286;95788;-58
2023/04/18 10:45:35;;;;;;;;;;;;;;;18.53;54.81;101288.23;104566;277;120415;-55
2023/04/18 10:48:24;;;;;;;;;;;;;;;18.16;55.38;101284.58;104142;277;105178;-56
2023/04/18 10:54:34;;;;;;;;;;;;;;;18.17;55.58;101280.73;104042;277;92452;-55
2023/04/18 10:57:07;;;;;;;;;;;;;;;18.40;55.55;101275.29;104024;279;95811;-55
2023/04/18 10:59:42;;;;;;;;;;;;;;;18.67;55.23;101273.91;104386;279;120378;-56
2023/04/18 11:02:23;;;;;;;;;;;;;;;18.91;55.37;101270.80;103972;279;104199;-55
2023/04/18 11:04:57;;;;;;;;;;;;;;;18.78;54.77;101277.00;104384;279;113733;-55
2023/04/18 11:07:36;;;;;;;;;;;;;;;18.62;54.64;101279.34;103992;280;93687;-55
2023/04/18 11:13:36;;;;;;;;;;;;;;;18.58;54.56;101272.34;104023;276;119046;-58
2023/04/18 11:16:09;;;;;;;;;;;;;;;18.40;54.30;101272.88;104296;277;106050;-58
2023/04/18 11:18:45;;;;;;;;;;;;;;;18.20;54.17;101275.34;104314;276;112831;-58
2023/04/18 11:21:17;;;;;;;;;;;;;;;18.00;54.45;101270.55;104699;277;93014;-58
2023/04/18 11:27:05;;;;;;;;;;;;;;;18.17;54.25;101265.21;104284;276;118929;-56
2023/04/18 11:29:37;;;;;;;;;;;;;;;17.85;53.82;101262.03;104798;276;106403;-58
2023/04/18 11:32:09;;;;;;;;;;;;;;;17.63;54.47;101259.15;104328;276;115055;-58
2023/04/18 11:34:42;;;;;;;;;;;;;;;17.63;54.83;101256.64;104324;276;94501;-55
2023/04/18 11:37:17;;;;;;;;;;;;;;;17.53;54.76;101262.02;104334;276;96471;-55
2023/04/18 11:39:52;;;;;;;;;;;;;;;17.57;54.80;101263.92;104341;276;119566;-55
2023/04/18 11:42:28;;;;;;;;;;;;;;;17.66;54.60;101260.61;104359;276;104532;-56
2023/04/18 11:45:00;;;;;;;;;;;;;;;17.62;54.15;101256.17;104300;276;114463;-55
2023/04/18 11:47:33;;;;;;;;;;;;;;;17.74;54.66;101256.48;104311;276;95249;-58
2023/04/18 11:50:07;;;;;;;;;;;;;;;17.99;54.91;101254.36;104333;276;96701;-58
2023/04/18 11:52:41;;;;;;;;;;;;;;;17.98;54.69;101246.99;104355;276;119880;-55
2023/04/18 11:55:20;;;;;;;;;;;;;;;17.95;54.28;101251.10;104358;276;104113;-55
2023/04/18 12:07:46;;;;;;;;;;;;;;;18.09;54.03;101238.12;104324;275;119765;-55
2023/04/18 12:10:28;;;;;;;;;;;;;;;17.92;53.90;101236.75;104369;275;105346;-55
2023/04/18 12:13:01;;;;;;;;;;;;;;;17.78;54.22;101237.46;104424;275;114222;-58
2023/04/18 12:15:33;;;;;;;;;;;;;;;17.69;54.62;101232.56;104400;275;94933;-58
2023/04/18 12:21:00;;;;;;;;;;;;;;;17.45;53.60;101231.66;104194;277;119971;-55
2023/04/18 12:23:38;;;;;;;;;;;;;;;17.40;53.92;101233.45;104029;278;103377;-55
2023/04/18 12:26:15;;;;;;;;;;;;;;;17.28;54.27;101226.00;104725;277;113342;-55
2023/04/18 12:28:51;;;;;;;;;;;;;;;17.28;54.34;101230.33;104300;277;94686;-58
2023/04/18 12:31:24;;;;;;;;;;;;;;;17.24;54.05;101225.75;104295;277;97153;-58
2023/04/18 12:33:58;;;;;;;;;;;;;;;17.21;54.31;101225.60;104275;277;120242;-58
2023/04/18 12:36:31;;;;;;;;;;;;;;;17.16;54.37;101221.65;104062;278;106397;-58
2023/04/18 12:39:03;;;;;;;;;;;;;;;17.17;54.52;101217.41;104304;277;114003;-57
2023/04/18 12:41:36;;;;;;;;;;;;;;;17.10;54.49;101217.83;104287;277;94533;-57
2023/04/18 12:44:08;;;;;;;;;;;;;;;17.19;54.68;101214.34;104749;277;97734;-58
2023/04/18 12:46:40;;;;;;;;;;;;;;;17.31;54.73;101214.99;104738;277;119546;-58
2023/04/18 12:49:12;;;;;;;;;;;;;;;17.29;54.14;101214.19;104059;267;107502;-58
2023/04/18 12:51:45;;;;;;;;;;;;;;;17.19;54.49;101209.42;104243;277;113242;-58
2023/04/18 12:54:17;;;;;;;;;;;;;;;17.28;54.56;101211.92;104268;277;95293;-58
2023/04/18 12:56:49;;;;;;;;;;;;;;;17.38;54.59;101206.56;104316;277;97560;-58
2023/04/18 12:59:22;;;;;;;;;;;;;;;17.32;54.25;101207.08;104307;277;121323;-58
2023/04/18 13:01:54;;;;;;;;;;;;;;;17.29;54.41;101201.46;104253;277;104953;-58
2023/04/18 13:04:26;;;;;;;;;;;;;;;17.22;54.43;101201.84;104256;277;114538;-55
2023/04/18 13:06:58;;;;;;;;;;;;;;;17.22;54.55;101195.35;104248;277;95237;-55
2023/04/18 13:09:30;;;;;;;;;;;;;;;17.27;54.66;101196.13;104714;277;97235;-58
2023/04/18 13:12:03;;;;;;;;;;;;;;;17.26;54.18;101193.10;104255;277;119376;-57
2023/04/18 13:14:35;;;;;;;;;;;;;;;17.14;54.47;101191.86;104053;277;104850;-55
2023/04/18 13:17:10;;;;;;;;;;;;;;;17.12;54.28;101191.83;104310;277;114604;-55
2023/04/18 13:19:42;;;;;;;;;;;;;;;17.13;54.27;101186.77;104272;277;94118;-55
2023/04/18 13:22:16;;;;;;;;;;;;;;;17.01;54.12;101182.52;104727;277;95233;-55
2023/04/18 13:24:48;;;;;;;;;;;;;;;17.13;54.32;101182.09;104293;277;120175;-57
2023/04/18 13:27:20;;;;;;;;;;;;;;;17.28;54.28;101174.70;104749;277;105071;-58
2023/04/18 13:33:26;;;;;;;;;;;;;;;17.48;53.88;101171.95;103818;276;93029;-58
2023/04/18 13:35:58;;;;;;;;;;;;;;;17.52;53.78;101169.55;104305;277;96933;-58
2023/04/18 13:38:30;;;;;;;;;;;;;;;17.62;53.59;101169.12;104252;277;120953;-58
2023/04/18 13:41:02;;;;;;;;;;;;;;;17.60;53.25;101167.52;104301;277;104910;-56
2023/04/18 13:43:34;;;;;;;;;;;;;;;17.62;53.16;101163.22;104255;277;114226;-56
2023/04/18 13:46:07;;;;;;;;;;;;;;;17.69;53.10;101159.19;104286;277;94081;-55
2023/04/18 13:48:39;;;;;;;;;;;;;;;17.78;53.24;101153.52;104299;277;97711;-55
2023/04/18 13:51:11;;;;;;;;;;;;;;;17.97;53.13;101153.72;104285;277;121000;-55
2023/04/18 13:53:43;;;;;;;;;;;;;;;17.90;52.43;101158.92;104304;320;104884;-56
2023/04/18 13:56:15;;;;;;;;;;;;;;;17.81;52.43;101155.23;104278;277;115228;-58
2023/04/18 13:58:48;;;;;;;;;;;;;;;17.75;52.37;101154.51;104277;277;94251;-58
2023/04/18 14:01:22;;;;;;;;;;;;;;;17.77;52.21;101154.25;104271;277;95328;-57
2023/04/18 14:03:54;;;;;;;;;;;;;;;17.78;52.11;101152.98;104278;277;119264;-57
2023/04/18 14:06:27;;;;;;;;;;;;;;;17.86;52.18;101149.27;104657;277;104337;-58
2023/04/18 14:09:00;;;;;;;;;;;;;;;17.79;51.88;101152.30;104175;277;115213;-57
2023/04/18 14:11:34;;;;;;;;;;;;;;;17.76;51.61;101148.52;104159;278;93436;-57
2023/04/18 14:14:08;;;;;;;;;;;;;;;17.74;51.60;101148.57;104230;277;97859;-57
2023/04/18 14:16:50;;;;;;;;;;;;;;;17.74;51.62;101146.02;104664;277;120345;-54
2023/04/18 14:19:22;;;;;;;;;;;;;;;17.78;51.68;101141.17;104755;276;104607;-55
2023/04/18 14:21:55;;;;;;;;;;;;;;;17.77;51.39;101140.33;104286;276;112966;-55
2023/04/18 14:24:41;;;;;;;;;;;;;;;17.75;51.41;101137.60;104277;276;94564;-58
2023/04/18 14:27:13;;;;;;;;;;;;;;;17.61;50.98;101135.73;104095;278;96917;-58
2023/04/18 14:29:47;;;;;;;;;;;;;;;17.49;50.80;101130.79;104098;281;119299;-57
2023/04/18 14:32:23;;;;;;;;;;;;;;;17.42;51.11;101129.31;104125;278;104892;-58
2023/04/18 14:34:57;;;;;;;;;;;;;;;17.42;50.93;101133.09;104372;279;113772;-56